sensor_id;sensor_type;location;lat;lon;timestamp;P1;durP1;ratioP1;P2;durP2;ratioP2
76576;SDS011;65441;44.748;37.600;2024-03-06T00:00:40;17.40;;;6.63;;
76576;SDS011;65441;44.748;37.600;2024-03-06T00:03:09;15.88;;;6.45;;
76576;SDS011;65441;44.748;37.600;2024-03-06T00:05:37;19.17;;;6.85;;
76576;SDS011;65441;44.748;37.600;2024-03-06T00:08:06;18.27;;;7.22;;
76576;SDS011;65441;44.748;37.600;2024-03-06T00:10:34;17.10;;;6.95;;
76576;SDS011;65441;44.748;37.600;2024-03-06T00:13:03;14.98;;;6.35;;
76576;SDS011;65441;44.748;37.600;2024-03-06T00:15:33;15.40;;;6.15;;
76576;SDS011;65441;44.748;37.600;2024-03-06T00:18:02;15.20;;;5.68;;
76576;SDS011;65441;44.748;37.600;2024-03-06T00:20:31;17.17;;;6.60;;
76576;SDS011;65441;44.748;37.600;2024-03-06T00:23:00;23.10;;;7.03;;
76576;SDS011;65441;44.748;37.600;2024-03-06T00:25:28;18.25;;;6.30;;
76576;SDS011;65441;44.748;37.600;2024-03-06T00:27:57;21.00;;;6.18;;
76576;SDS011;65441;44.748;37.600;2024-03-06T00:30:25;17.58;;;6.60;;
76576;SDS011;65441;44.748;37.600;2024-03-06T00:32:55;16.02;;;6.38;;
76576;SDS011;65441;44.748;37.600;2024-03-06T00:35:25;18.65;;;6.43;;
76576;SDS011;65441;44.748;37.600;2024-03-06T00:37:55;25.35;;;7.40;;
76576;SDS011;65441;44.748;37.600;2024-03-06T00:40:23;17.35;;;6.97;;
76576;SDS011;65441;44.748;37.600;2024-03-06T00:42:52;16.70;;;6.50;;
76576;SDS011;65441;44.748;37.600;2024-03-06T00:45:20;19.60;;;6.72;;
76576;SDS011;65441;44.748;37.600;2024-03-06T00:47:49;15.05;;;6.75;;
76576;SDS011;65441;44.748;37.600;2024-03-06T00:50:19;15.65;;;6.00;;
76576;SDS011;65441;44.748;37.600;2024-03-06T00:52:48;14.63;;;5.60;;
76576;SDS011;65441;44.748;37.600;2024-03-06T00:55:17;14.63;;;6.28;;
76576;SDS011;65441;44.748;37.600;2024-03-06T00:57:45;16.10;;;5.68;;
76576;SDS011;65441;44.748;37.600;2024-03-06T01:00:14;14.90;;;6.82;;
76576;SDS011;65441;44.748;37.600;2024-03-06T01:02:43;15.43;;;5.85;;
76576;SDS011;65441;44.748;37.600;2024-03-06T01:05:12;13.20;;;5.68;;
76576;SDS011;65441;44.748;37.600;2024-03-06T01:07:42;14.38;;;5.68;;
76576;SDS011;65441;44.748;37.600;2024-03-06T01:10:10;14.27;;;6.32;;
76576;SDS011;65441;44.748;37.600;2024-03-06T01:12:39;14.30;;;6.05;;
76576;SDS011;65441;44.748;37.600;2024-03-06T01:15:10;14.07;;;6.00;;
76576;SDS011;65441;44.748;37.600;2024-03-06T01:17:39;15.88;;;6.70;;
76576;SDS011;65441;44.748;37.600;2024-03-06T01:20:08;17.15;;;6.30;;
76576;SDS011;65441;44.748;37.600;2024-03-06T01:22:36;16.60;;;6.60;;
76576;SDS011;65441;44.748;37.600;2024-03-06T01:25:07;15.45;;;5.60;;
76576;SDS011;65441;44.748;37.600;2024-03-06T01:27:35;12.82;;;5.72;;
76576;SDS011;65441;44.748;37.600;2024-03-06T01:30:04;14.82;;;5.38;;
76576;SDS011;65441;44.748;37.600;2024-03-06T01:32:34;16.17;;;5.93;;
76576;SDS011;65441;44.748;37.600;2024-03-06T01:35:03;13.60;;;5.57;;
76576;SDS011;65441;44.748;37.600;2024-03-06T01:37:33;15.68;;;6.15;;
76576;SDS011;65441;44.748;37.600;2024-03-06T01:40:01;15.95;;;6.40;;
76576;SDS011;65441;44.748;37.600;2024-03-06T01:42:33;15.23;;;6.43;;
76576;SDS011;65441;44.748;37.600;2024-03-06T01:45:02;14.23;;;5.00;;
76576;SDS011;65441;44.748;37.600;2024-03-06T01:47:31;16.75;;;5.68;;
76576;SDS011;65441;44.748;37.600;2024-03-06T01:50:00;18.00;;;6.78;;
76576;SDS011;65441;44.748;37.600;2024-03-06T01:52:29;13.82;;;5.50;;
76576;SDS011;65441;44.748;37.600;2024-03-06T01:54:58;14.27;;;5.28;;
76576;SDS011;65441;44.748;37.600;2024-03-06T01:57:27;18.48;;;6.22;;
76576;SDS011;65441;44.748;37.600;2024-03-06T01:59:58;18.38;;;7.10;;
76576;SDS011;65441;44.748;37.600;2024-03-06T02:02:27;18.65;;;6.55;;
76576;SDS011;65441;44.748;37.600;2024-03-06T02:04:56;15.45;;;5.63;;
76576;SDS011;65441;44.748;37.600;2024-03-06T02:07:26;18.27;;;5.38;;
76576;SDS011;65441;44.748;37.600;2024-03-06T02:09:59;17.38;;;6.15;;
76576;SDS011;65441;44.748;37.600;2024-03-06T02:12:28;27.25;;;5.50;;
76576;SDS011;65441;44.748;37.600;2024-03-06T02:14:58;16.27;;;5.95;;
76576;SDS011;65441;44.748;37.600;2024-03-06T02:17:27;13.63;;;5.68;;
76576;SDS011;65441;44.748;37.600;2024-03-06T02:19:55;19.65;;;5.55;;
76576;SDS011;65441;44.748;37.600;2024-03-06T02:22:26;15.35;;;5.65;;
76576;SDS011;65441;44.748;37.600;2024-03-06T02:24:55;17.00;;;6.22;;
76576;SDS011;65441;44.748;37.600;2024-03-06T02:27:23;15.30;;;5.43;;
76576;SDS011;65441;44.748;37.600;2024-03-06T02:29:52;13.82;;;5.78;;
76576;SDS011;65441;44.748;37.600;2024-03-06T02:32:20;18.92;;;5.88;;
76576;SDS011;65441;44.748;37.600;2024-03-06T02:34:50;15.15;;;5.72;;
76576;SDS011;65441;44.748;37.600;2024-03-06T02:37:19;17.60;;;6.15;;
76576;SDS011;65441;44.748;37.600;2024-03-06T02:39:50;13.77;;;6.05;;
76576;SDS011;65441;44.748;37.600;2024-03-06T02:42:18;15.38;;;5.57;;
76576;SDS011;65441;44.748;37.600;2024-03-06T02:44:47;16.20;;;6.30;;
76576;SDS011;65441;44.748;37.600;2024-03-06T02:47:15;14.80;;;5.63;;
76576;SDS011;65441;44.748;37.600;2024-03-06T02:49:44;14.02;;;5.70;;
76576;SDS011;65441;44.748;37.600;2024-03-06T02:52:12;12.15;;;5.10;;
76576;SDS011;65441;44.748;37.600;2024-03-06T02:54:41;15.55;;;5.38;;
76576;SDS011;65441;44.748;37.600;2024-03-06T02:57:11;14.38;;;5.15;;
76576;SDS011;65441;44.748;37.600;2024-03-06T02:59:39;15.60;;;6.28;;
76576;SDS011;65441;44.748;37.600;2024-03-06T03:02:08;16.13;;;5.05;;
76576;SDS011;65441;44.748;37.600;2024-03-06T03:04:36;21.25;;;5.70;;
76576;SDS011;65441;44.748;37.600;2024-03-06T03:07:05;15.70;;;5.65;;
76576;SDS011;65441;44.748;37.600;2024-03-06T03:09:36;17.08;;;5.63;;
76576;SDS011;65441;44.748;37.600;2024-03-06T03:12:05;16.50;;;6.80;;
76576;SDS011;65441;44.748;37.600;2024-03-06T03:14:35;19.25;;;5.88;;
76576;SDS011;65441;44.748;37.600;2024-03-06T03:17:04;14.32;;;5.82;;
76576;SDS011;65441;44.748;37.600;2024-03-06T03:19:33;17.13;;;6.35;;
76576;SDS011;65441;44.748;37.600;2024-03-06T03:22:01;19.77;;;6.15;;
76576;SDS011;65441;44.748;37.600;2024-03-06T03:24:30;17.52;;;5.80;;
76576;SDS011;65441;44.748;37.600;2024-03-06T03:26:59;17.42;;;6.00;;
76576;SDS011;65441;44.748;37.600;2024-03-06T03:29:27;15.32;;;6.25;;
76576;SDS011;65441;44.748;37.600;2024-03-06T03:31:57;14.77;;;6.15;;
76576;SDS011;65441;44.748;37.600;2024-03-06T03:34:26;18.38;;;7.03;;
76576;SDS011;65441;44.748;37.600;2024-03-06T03:36:55;16.83;;;6.53;;
76576;SDS011;65441;44.748;37.600;2024-03-06T03:39:23;19.15;;;6.97;;
76576;SDS011;65441;44.748;37.600;2024-03-06T03:41:53;13.95;;;6.15;;
76576;SDS011;65441;44.748;37.600;2024-03-06T03:44:22;19.20;;;6.10;;
76576;SDS011;65441;44.748;37.600;2024-03-06T03:46:50;15.50;;;6.30;;
76576;SDS011;65441;44.748;37.600;2024-03-06T03:49:21;21.40;;;6.75;;
76576;SDS011;65441;44.748;37.600;2024-03-06T03:51:49;19.60;;;6.80;;
76576;SDS011;65441;44.748;37.600;2024-03-06T03:54:18;17.92;;;7.00;;
76576;SDS011;65441;44.748;37.600;2024-03-06T03:56:47;16.35;;;6.90;;
76576;SDS011;65441;44.748;37.600;2024-03-06T03:59:15;17.45;;;6.97;;
76576;SDS011;65441;44.748;37.600;2024-03-06T04:01:44;18.08;;;7.55;;
76576;SDS011;65441;44.748;37.600;2024-03-06T04:04:14;20.13;;;7.20;;
76576;SDS011;65441;44.748;37.600;2024-03-06T04:06:44;17.58;;;7.25;;
76576;SDS011;65441;44.748;37.600;2024-03-06T04:09:13;22.70;;;7.30;;
76576;SDS011;65441;44.748;37.600;2024-03-06T04:11:41;17.95;;;7.72;;
76576;SDS011;65441;44.748;37.600;2024-03-06T04:14:10;18.27;;;8.27;;
76576;SDS011;65441;44.748;37.600;2024-03-06T04:16:38;19.08;;;8.20;;
76576;SDS011;65441;44.748;37.600;2024-03-06T04:19:07;21.33;;;7.25;;
76576;SDS011;65441;44.748;37.600;2024-03-06T04:21:40;19.70;;;7.18;;
76576;SDS011;65441;44.748;37.600;2024-03-06T04:24:10;21.33;;;6.80;;
76576;SDS011;65441;44.748;37.600;2024-03-06T04:26:38;17.58;;;6.85;;
76576;SDS011;65441;44.748;37.600;2024-03-06T04:29:07;17.25;;;7.03;;
76576;SDS011;65441;44.748;37.600;2024-03-06T04:31:36;19.95;;;8.27;;
76576;SDS011;65441;44.748;37.600;2024-03-06T04:34:04;20.75;;;7.97;;
76576;SDS011;65441;44.748;37.600;2024-03-06T04:36:33;19.58;;;7.88;;
76576;SDS011;65441;44.748;37.600;2024-03-06T04:39:01;19.25;;;7.18;;
76576;SDS011;65441;44.748;37.600;2024-03-06T04:41:35;20.20;;;7.32;;
76576;SDS011;65441;44.748;37.600;2024-03-06T04:44:03;20.85;;;8.98;;
76576;SDS011;65441;44.748;37.600;2024-03-06T04:46:32;25.98;;;8.55;;
76576;SDS011;65441;44.748;37.600;2024-03-06T04:49:01;23.15;;;8.43;;
76576;SDS011;65441;44.748;37.600;2024-03-06T04:51:30;19.92;;;8.10;;
76576;SDS011;65441;44.748;37.600;2024-03-06T04:53:58;25.70;;;8.95;;
76576;SDS011;65441;44.748;37.600;2024-03-06T04:56:27;20.48;;;7.78;;
76576;SDS011;65441;44.748;37.600;2024-03-06T04:58:57;23.35;;;8.02;;
76576;SDS011;65441;44.748;37.600;2024-03-06T05:01:29;22.30;;;9.07;;
76576;SDS011;65441;44.748;37.600;2024-03-06T05:03:58;18.48;;;8.15;;
76576;SDS011;65441;44.748;37.600;2024-03-06T05:06:27;22.10;;;8.50;;
76576;SDS011;65441;44.748;37.600;2024-03-06T05:08:56;20.67;;;7.72;;
76576;SDS011;65441;44.748;37.600;2024-03-06T05:11:24;33.95;;;9.10;;
76576;SDS011;65441;44.748;37.600;2024-03-06T05:13:53;24.40;;;10.02;;
76576;SDS011;65441;44.748;37.600;2024-03-06T05:16:23;21.33;;;8.90;;
76576;SDS011;65441;44.748;37.600;2024-03-06T05:18:53;22.48;;;8.48;;
76576;SDS011;65441;44.748;37.600;2024-03-06T05:21:22;21.50;;;8.85;;
76576;SDS011;65441;44.748;37.600;2024-03-06T05:23:51;20.05;;;8.73;;
76576;SDS011;65441;44.748;37.600;2024-03-06T05:26:20;21.73;;;7.38;;
76576;SDS011;65441;44.748;37.600;2024-03-06T05:28:49;26.17;;;8.60;;
76576;SDS011;65441;44.748;37.600;2024-03-06T05:31:18;25.25;;;9.75;;
76576;SDS011;65441;44.748;37.600;2024-03-06T05:33:49;20.90;;;7.53;;
76576;SDS011;65441;44.748;37.600;2024-03-06T05:36:17;23.27;;;8.15;;
76576;SDS011;65441;44.748;37.600;2024-03-06T05:38:46;23.42;;;9.13;;
76576;SDS011;65441;44.748;37.600;2024-03-06T05:41:16;25.10;;;8.40;;
76576;SDS011;65441;44.748;37.600;2024-03-06T05:43:45;22.33;;;8.63;;
76576;SDS011;65441;44.748;37.600;2024-03-06T05:46:14;21.20;;;8.68;;
76576;SDS011;65441;44.748;37.600;2024-03-06T05:48:43;25.92;;;9.10;;
76576;SDS011;65441;44.748;37.600;2024-03-06T05:51:13;18.70;;;8.40;;
76576;SDS011;65441;44.748;37.600;2024-03-06T05:53:41;21.63;;;8.00;;
76576;SDS011;65441;44.748;37.600;2024-03-06T05:56:10;21.05;;;8.93;;
76576;SDS011;65441;44.748;37.600;2024-03-06T05:58:38;23.58;;;9.48;;
76576;SDS011;65441;44.748;37.600;2024-03-06T06:01:07;20.48;;;8.27;;
76576;SDS011;65441;44.748;37.600;2024-03-06T06:03:36;21.13;;;8.10;;
76576;SDS011;65441;44.748;37.600;2024-03-06T06:06:05;17.35;;;7.63;;
76576;SDS011;65441;44.748;37.600;2024-03-06T06:08:36;24.63;;;8.15;;
76576;SDS011;65441;44.748;37.600;2024-03-06T06:11:05;24.63;;;7.93;;
76576;SDS011;65441;44.748;37.600;2024-03-06T06:13:34;21.23;;;8.18;;
76576;SDS011;65441;44.748;37.600;2024-03-06T06:16:02;18.27;;;6.80;;
76576;SDS011;65441;44.748;37.600;2024-03-06T06:18:32;18.33;;;7.20;;
76576;SDS011;65441;44.748;37.600;2024-03-06T06:21:00;19.02;;;7.72;;
76576;SDS011;65441;44.748;37.600;2024-03-06T06:23:33;21.05;;;8.35;;
76576;SDS011;65441;44.748;37.600;2024-03-06T06:26:03;19.20;;;8.13;;
76576;SDS011;65441;44.748;37.600;2024-03-06T06:28:32;20.05;;;7.22;;
76576;SDS011;65441;44.748;37.600;2024-03-06T06:31:01;17.23;;;6.63;;
76576;SDS011;65441;44.748;37.600;2024-03-06T06:33:35;30.15;;;8.35;;
76576;SDS011;65441;44.748;37.600;2024-03-06T06:36:03;22.45;;;7.65;;
76576;SDS011;65441;44.748;37.600;2024-03-06T06:38:32;25.83;;;7.95;;
76576;SDS011;65441;44.748;37.600;2024-03-06T06:41:02;19.70;;;7.30;;
76576;SDS011;65441;44.748;37.600;2024-03-06T06:43:31;17.08;;;7.88;;
76576;SDS011;65441;44.748;37.600;2024-03-06T06:46:00;17.52;;;7.03;;
76576;SDS011;65441;44.748;37.600;2024-03-06T06:48:31;58.95;;;19.83;;
76576;SDS011;65441;44.748;37.600;2024-03-06T06:50:59;41.33;;;17.42;;
76576;SDS011;65441;44.748;37.600;2024-03-06T06:53:28;19.25;;;9.05;;
76576;SDS011;65441;44.748;37.600;2024-03-06T06:55:57;22.75;;;9.32;;
76576;SDS011;65441;44.748;37.600;2024-03-06T06:58:27;22.10;;;9.27;;
76576;SDS011;65441;44.748;37.600;2024-03-06T07:00:56;17.15;;;8.05;;
76576;SDS011;65441;44.748;37.600;2024-03-06T07:03:25;23.10;;;8.82;;
76576;SDS011;65441;44.748;37.600;2024-03-06T07:05:56;14.32;;;6.72;;
76576;SDS011;65441;44.748;37.600;2024-03-06T07:08:24;18.52;;;6.97;;
76576;SDS011;65441;44.748;37.600;2024-03-06T07:10:53;14.18;;;6.35;;
76576;SDS011;65441;44.748;37.600;2024-03-06T07:13:21;18.85;;;6.63;;
76576;SDS011;65441;44.748;37.600;2024-03-06T07:15:51;17.60;;;7.30;;
76576;SDS011;65441;44.748;37.600;2024-03-06T07:18:20;16.98;;;6.97;;
76576;SDS011;65441;44.748;37.600;2024-03-06T07:20:49;16.30;;;6.78;;
76576;SDS011;65441;44.748;37.600;2024-03-06T07:23:17;13.85;;;5.75;;
76576;SDS011;65441;44.748;37.600;2024-03-06T07:25:46;16.27;;;6.43;;
76576;SDS011;65441;44.748;37.600;2024-03-06T07:28:14;15.32;;;6.80;;
76576;SDS011;65441;44.748;37.600;2024-03-06T07:30:43;18.60;;;6.57;;
76576;SDS011;65441;44.748;37.600;2024-03-06T07:33:13;14.70;;;6.85;;
76576;SDS011;65441;44.748;37.600;2024-03-06T07:35:42;17.80;;;6.57;;
76576;SDS011;65441;44.748;37.600;2024-03-06T07:38:10;13.93;;;4.97;;
76576;SDS011;65441;44.748;37.600;2024-03-06T07:40:39;16.50;;;5.25;;
76576;SDS011;65441;44.748;37.600;2024-03-06T07:43:07;16.65;;;6.75;;
76576;SDS011;65441;44.748;37.600;2024-03-06T07:45:36;16.17;;;6.10;;
76576;SDS011;65441;44.748;37.600;2024-03-06T07:48:05;15.32;;;6.05;;
76576;SDS011;65441;44.748;37.600;2024-03-06T07:50:37;11.20;;;4.47;;
76576;SDS011;65441;44.748;37.600;2024-03-06T07:53:06;14.30;;;6.07;;
76576;SDS011;65441;44.748;37.600;2024-03-06T07:55:34;15.20;;;6.22;;
76576;SDS011;65441;44.748;37.600;2024-03-06T07:58:05;14.68;;;5.88;;
76576;SDS011;65441;44.748;37.600;2024-03-06T08:00:34;15.18;;;6.22;;
76576;SDS011;65441;44.748;37.600;2024-03-06T08:03:03;18.70;;;6.93;;
76576;SDS011;65441;44.748;37.600;2024-03-06T08:05:32;14.35;;;6.28;;
76576;SDS011;65441;44.748;37.600;2024-03-06T08:08:02;17.88;;;6.47;;
76576;SDS011;65441;44.748;37.600;2024-03-06T08:10:32;19.17;;;6.55;;
76576;SDS011;65441;44.748;37.600;2024-03-06T08:13:00;17.63;;;6.78;;
76576;SDS011;65441;44.748;37.600;2024-03-06T08:15:29;13.55;;;6.03;;
76576;SDS011;65441;44.748;37.600;2024-03-06T08:17:58;20.80;;;6.70;;
76576;SDS011;65441;44.748;37.600;2024-03-06T08:20:26;21.67;;;6.85;;
76576;SDS011;65441;44.748;37.600;2024-03-06T08:22:55;17.15;;;5.93;;
76576;SDS011;65441;44.748;37.600;2024-03-06T08:25:25;16.30;;;5.47;;
76576;SDS011;65441;44.748;37.600;2024-03-06T08:27:54;15.20;;;6.00;;
76576;SDS011;65441;44.748;37.600;2024-03-06T08:30:23;17.70;;;6.78;;
76576;SDS011;65441;44.748;37.600;2024-03-06T08:32:51;15.57;;;5.70;;
76576;SDS011;65441;44.748;37.600;2024-03-06T08:35:20;21.73;;;6.57;;
76576;SDS011;65441;44.748;37.600;2024-03-06T08:37:50;16.15;;;6.22;;
76576;SDS011;65441;44.748;37.600;2024-03-06T08:40:18;16.38;;;5.97;;
76576;SDS011;65441;44.748;37.600;2024-03-06T08:42:49;15.70;;;7.15;;
76576;SDS011;65441;44.748;37.600;2024-03-06T08:45:18;15.75;;;5.95;;
76576;SDS011;65441;44.748;37.600;2024-03-06T08:47:46;16.25;;;6.82;;
76576;SDS011;65441;44.748;37.600;2024-03-06T08:50:15;14.93;;;5.82;;
76576;SDS011;65441;44.748;37.600;2024-03-06T08:52:44;13.00;;;5.25;;
76576;SDS011;65441;44.748;37.600;2024-03-06T08:55:13;14.85;;;5.78;;
76576;SDS011;65441;44.748;37.600;2024-03-06T08:57:42;13.20;;;5.03;;
76576;SDS011;65441;44.748;37.600;2024-03-06T09:00:12;10.95;;;4.93;;
76576;SDS011;65441;44.748;37.600;2024-03-06T09:02:43;24.48;;;7.20;;
76576;SDS011;65441;44.748;37.600;2024-03-06T09:05:11;12.05;;;5.82;;
76576;SDS011;65441;44.748;37.600;2024-03-06T09:07:45;19.10;;;6.07;;
76576;SDS011;65441;44.748;37.600;2024-03-06T09:10:13;15.77;;;6.35;;
76576;SDS011;65441;44.748;37.600;2024-03-06T09:12:42;17.83;;;6.78;;
76576;SDS011;65441;44.748;37.600;2024-03-06T09:15:12;18.42;;;5.60;;
76576;SDS011;65441;44.748;37.600;2024-03-06T09:17:42;14.65;;;5.97;;
76576;SDS011;65441;44.748;37.600;2024-03-06T09:20:11;17.42;;;6.80;;
76576;SDS011;65441;44.748;37.600;2024-03-06T09:22:40;14.73;;;6.03;;
76576;SDS011;65441;44.748;37.600;2024-03-06T09:25:09;18.67;;;6.15;;
76576;SDS011;65441;44.748;37.600;2024-03-06T09:27:40;14.52;;;6.22;;
76576;SDS011;65441;44.748;37.600;2024-03-06T09:30:08;13.10;;;4.90;;
76576;SDS011;65441;44.748;37.600;2024-03-06T09:32:41;13.95;;;6.47;;
76576;SDS011;65441;44.748;37.600;2024-03-06T09:35:10;23.80;;;7.40;;
76576;SDS011;65441;44.748;37.600;2024-03-06T09:37:40;14.65;;;6.68;;
76576;SDS011;65441;44.748;37.600;2024-03-06T09:40:10;15.32;;;6.32;;
76576;SDS011;65441;44.748;37.600;2024-03-06T09:42:47;19.10;;;7.82;;
76576;SDS011;65441;44.748;37.600;2024-03-06T09:45:15;16.75;;;7.63;;
76576;SDS011;65441;44.748;37.600;2024-03-06T09:47:47;23.08;;;8.13;;
76576;SDS011;65441;44.748;37.600;2024-03-06T09:50:18;22.10;;;8.00;;
76576;SDS011;65441;44.748;37.600;2024-03-06T09:55:21;26.20;;;8.60;;
76576;SDS011;65441;44.748;37.600;2024-03-06T09:57:50;21.63;;;8.20;;
76576;SDS011;65441;44.748;37.600;2024-03-06T10:00:19;26.70;;;8.85;;
76576;SDS011;65441;44.748;37.600;2024-03-06T10:02:51;24.15;;;7.70;;
76576;SDS011;65441;44.748;37.600;2024-03-06T10:05:26;16.17;;;6.47;;
76576;SDS011;65441;44.748;37.600;2024-03-06T10:07:54;19.50;;;7.00;;
76576;SDS011;65441;44.748;37.600;2024-03-06T10:10:24;20.52;;;7.53;;
76576;SDS011;65441;44.748;37.600;2024-03-06T10:12:53;13.68;;;6.30;;
76576;SDS011;65441;44.748;37.600;2024-03-06T10:15:23;15.75;;;5.65;;
76576;SDS011;65441;44.748;37.600;2024-03-06T10:17:54;17.52;;;6.50;;
76576;SDS011;65441;44.748;37.600;2024-03-06T10:20:39;20.65;;;7.13;;
76576;SDS011;65441;44.748;37.600;2024-03-06T10:23:10;12.25;;;5.55;;
76576;SDS011;65441;44.748;37.600;2024-03-06T10:25:38;8.60;;;4.32;;
76576;SDS011;65441;44.748;37.600;2024-03-06T10:28:07;20.10;;;7.40;;
76576;SDS011;65441;44.748;37.600;2024-03-06T10:30:37;15.80;;;4.60;;
76576;SDS011;65441;44.748;37.600;2024-03-06T10:33:10;10.13;;;4.85;;
76576;SDS011;65441;44.748;37.600;2024-03-06T10:35:39;10.07;;;4.18;;
76576;SDS011;65441;44.748;37.600;2024-03-06T10:38:08;10.93;;;4.55;;
76576;SDS011;65441;44.748;37.600;2024-03-06T10:40:39;9.52;;;4.13;;
76576;SDS011;65441;44.748;37.600;2024-03-06T10:43:09;12.32;;;5.38;;
76576;SDS011;65441;44.748;37.600;2024-03-06T10:45:44;12.07;;;4.63;;
76576;SDS011;65441;44.748;37.600;2024-03-06T10:48:17;11.60;;;4.60;;
76576;SDS011;65441;44.748;37.600;2024-03-06T10:50:46;11.48;;;4.75;;
76576;SDS011;65441;44.748;37.600;2024-03-06T10:53:17;15.57;;;5.85;;
76576;SDS011;65441;44.748;37.600;2024-03-06T10:55:46;11.73;;;4.55;;
76576;SDS011;65441;44.748;37.600;2024-03-06T10:58:14;6.90;;;2.72;;
76576;SDS011;65441;44.748;37.600;2024-03-06T11:00:45;12.05;;;4.57;;
76576;SDS011;65441;44.748;37.600;2024-03-06T11:03:15;12.30;;;5.47;;
76576;SDS011;65441;44.748;37.600;2024-03-06T11:05:45;11.55;;;4.47;;
76576;SDS011;65441;44.748;37.600;2024-03-06T11:08:17;12.75;;;5.38;;
76576;SDS011;65441;44.748;37.600;2024-03-06T11:10:45;10.63;;;4.55;;
76576;SDS011;65441;44.748;37.600;2024-03-06T11:13:20;14.57;;;5.03;;
76576;SDS011;65441;44.748;37.600;2024-03-06T11:15:56;10.57;;;4.07;;
76576;SDS011;65441;44.748;37.600;2024-03-06T11:18:43;7.93;;;3.60;;
76576;SDS011;65441;44.748;37.600;2024-03-06T11:21:28;8.07;;;3.30;;
76576;SDS011;65441;44.748;37.600;2024-03-06T11:26:52;11.18;;;4.78;;
76576;SDS011;65441;44.748;37.600;2024-03-06T11:29:26;10.25;;;4.35;;
76576;SDS011;65441;44.748;37.600;2024-03-06T11:31:59;12.82;;;5.03;;
76576;SDS011;65441;44.748;37.600;2024-03-06T11:34:31;10.00;;;3.70;;
76576;SDS011;65441;44.748;37.600;2024-03-06T11:36:59;14.05;;;5.60;;
76576;SDS011;65441;44.748;37.600;2024-03-06T11:39:32;12.32;;;4.22;;
76576;SDS011;65441;44.748;37.600;2024-03-06T11:42:03;12.27;;;5.10;;
76576;SDS011;65441;44.748;37.600;2024-03-06T11:44:34;10.50;;;4.45;;
76576;SDS011;65441;44.748;37.600;2024-03-06T11:47:04;10.50;;;4.63;;
76576;SDS011;65441;44.748;37.600;2024-03-06T11:49:36;20.38;;;5.97;;
76576;SDS011;65441;44.748;37.600;2024-03-06T11:52:05;16.63;;;5.50;;
76576;SDS011;65441;44.748;37.600;2024-03-06T11:54:36;16.83;;;5.70;;
76576;SDS011;65441;44.748;37.600;2024-03-06T11:57:05;9.23;;;3.92;;
76576;SDS011;65441;44.748;37.600;2024-03-06T11:59:34;7.70;;;2.83;;
76576;SDS011;65441;44.748;37.600;2024-03-06T12:02:06;7.55;;;2.13;;
76576;SDS011;65441;44.748;37.600;2024-03-06T12:04:37;5.88;;;2.90;;
76576;SDS011;65441;44.748;37.600;2024-03-06T12:07:06;7.55;;;2.78;;
76576;SDS011;65441;44.748;37.600;2024-03-06T12:09:35;11.88;;;3.55;;
76576;SDS011;65441;44.748;37.600;2024-03-06T12:12:05;8.95;;;3.50;;
76576;SDS011;65441;44.748;37.600;2024-03-06T12:14:35;8.68;;;4.38;;
76576;SDS011;65441;44.748;37.600;2024-03-06T12:17:05;10.02;;;3.53;;
76576;SDS011;65441;44.748;37.600;2024-03-06T12:19:34;10.55;;;4.53;;
76576;SDS011;65441;44.748;37.600;2024-03-06T12:22:05;8.73;;;4.20;;
76576;SDS011;65441;44.748;37.600;2024-03-06T12:24:34;8.90;;;3.95;;
76576;SDS011;65441;44.748;37.600;2024-03-06T12:27:03;13.57;;;4.38;;
76576;SDS011;65441;44.748;37.600;2024-03-06T12:29:34;11.85;;;4.60;;
76576;SDS011;65441;44.748;37.600;2024-03-06T12:32:04;13.70;;;4.65;;
76576;SDS011;65441;44.748;37.600;2024-03-06T12:34:43;14.50;;;4.65;;
76576;SDS011;65441;44.748;37.600;2024-03-06T12:37:13;6.72;;;2.75;;
76576;SDS011;65441;44.748;37.600;2024-03-06T12:39:41;12.13;;;4.18;;
76576;SDS011;65441;44.748;37.600;2024-03-06T12:42:12;9.45;;;3.83;;
76576;SDS011;65441;44.748;37.600;2024-03-06T12:44:41;11.88;;;4.60;;
76576;SDS011;65441;44.748;37.600;2024-03-06T12:47:10;9.07;;;3.45;;
76576;SDS011;65441;44.748;37.600;2024-03-06T12:49:38;10.23;;;4.25;;
76576;SDS011;65441;44.748;37.600;2024-03-06T12:52:07;10.68;;;5.20;;
76576;SDS011;65441;44.748;37.600;2024-03-06T12:54:36;10.88;;;4.18;;
76576;SDS011;65441;44.748;37.600;2024-03-06T12:57:05;14.32;;;5.82;;
76576;SDS011;65441;44.748;37.600;2024-03-06T12:59:34;16.77;;;7.00;;
76576;SDS011;65441;44.748;37.600;2024-03-06T13:02:03;18.75;;;8.02;;
76576;SDS011;65441;44.748;37.600;2024-03-06T13:04:32;18.58;;;8.05;;
76576;SDS011;65441;44.748;37.600;2024-03-06T13:07:00;19.42;;;7.68;;
76576;SDS011;65441;44.748;37.600;2024-03-06T13:09:29;19.77;;;8.45;;
76576;SDS011;65441;44.748;37.600;2024-03-06T13:11:59;20.63;;;8.55;;
76576;SDS011;65441;44.748;37.600;2024-03-06T13:14:30;26.63;;;9.75;;
76576;SDS011;65441;44.748;37.600;2024-03-06T13:16:59;24.85;;;9.35;;
76576;SDS011;65441;44.748;37.600;2024-03-06T13:19:28;27.02;;;10.02;;
76576;SDS011;65441;44.748;37.600;2024-03-06T13:21:58;20.80;;;9.25;;
76576;SDS011;65441;44.748;37.600;2024-03-06T13:24:26;24.63;;;9.80;;
76576;SDS011;65441;44.748;37.600;2024-03-06T13:26:55;27.88;;;10.00;;
76576;SDS011;65441;44.748;37.600;2024-03-06T13:29:27;20.17;;;9.43;;
76576;SDS011;65441;44.748;37.600;2024-03-06T13:32:01;23.45;;;10.10;;
76576;SDS011;65441;44.748;37.600;2024-03-06T13:34:29;23.13;;;10.23;;
76576;SDS011;65441;44.748;37.600;2024-03-06T13:36:58;29.13;;;10.38;;
76576;SDS011;65441;44.748;37.600;2024-03-06T13:39:26;20.48;;;9.23;;
76576;SDS011;65441;44.748;37.600;2024-03-06T13:41:55;22.55;;;8.98;;
76576;SDS011;65441;44.748;37.600;2024-03-06T13:44:27;21.85;;;8.65;;
76576;SDS011;65441;44.748;37.600;2024-03-06T13:46:56;24.00;;;9.52;;
76576;SDS011;65441;44.748;37.600;2024-03-06T13:49:35;26.77;;;9.60;;
76576;SDS011;65441;44.748;37.600;2024-03-06T13:52:06;24.55;;;9.25;;
76576;SDS011;65441;44.748;37.600;2024-03-06T13:54:37;24.63;;;9.35;;
76576;SDS011;65441;44.748;37.600;2024-03-06T13:57:06;22.33;;;8.52;;
76576;SDS011;65441;44.748;37.600;2024-03-06T13:59:36;23.40;;;9.25;;
76576;SDS011;65441;44.748;37.600;2024-03-06T14:02:06;22.80;;;9.10;;
76576;SDS011;65441;44.748;37.600;2024-03-06T14:04:34;20.35;;;8.60;;
76576;SDS011;65441;44.748;37.600;2024-03-06T14:07:04;23.45;;;8.18;;
76576;SDS011;65441;44.748;37.600;2024-03-06T14:09:32;20.35;;;8.18;;
76576;SDS011;65441;44.748;37.600;2024-03-06T14:12:01;21.35;;;9.07;;
76576;SDS011;65441;44.748;37.600;2024-03-06T14:14:30;27.65;;;8.95;;
76576;SDS011;65441;44.748;37.600;2024-03-06T14:17:00;22.02;;;9.10;;
76576;SDS011;65441;44.748;37.600;2024-03-06T14:19:28;25.55;;;9.70;;
76576;SDS011;65441;44.748;37.600;2024-03-06T14:21:57;24.95;;;8.85;;
76576;SDS011;65441;44.748;37.600;2024-03-06T14:24:25;19.88;;;8.82;;
76576;SDS011;65441;44.748;37.600;2024-03-06T14:26:54;20.25;;;8.35;;
76576;SDS011;65441;44.748;37.600;2024-03-06T14:29:22;20.08;;;7.97;;
76576;SDS011;65441;44.748;37.600;2024-03-06T14:31:52;19.35;;;8.35;;
76576;SDS011;65441;44.748;37.600;2024-03-06T14:34:22;23.02;;;9.70;;
76576;SDS011;65441;44.748;37.600;2024-03-06T14:36:50;24.55;;;9.07;;
76576;SDS011;65441;44.748;37.600;2024-03-06T14:39:19;22.40;;;8.25;;